createdAt,value
2022-09-15T00:00:45.774Z,25.47
2022-09-15T00:07:11.289Z,25.52
2022-09-15T00:13:43.723Z,25.47
2022-09-15T00:20:14.746Z,25.44
2022-09-15T00:26:42.748Z,25.5
2022-09-15T00:33:10.632Z,25.71
2022-09-15T00:39:37.833Z,25.52
2022-09-15T00:46:13.052Z,25.48
2022-09-15T00:53:08.762Z,25.46
2022-09-15T01:00:16.892Z,25.49
2022-09-15T01:06:56.268Z,25.44
2022-09-15T01:13:49.850Z,25.43
2022-09-15T01:20:39.371Z,25.39
2022-09-15T01:27:47.895Z,25.41
2022-09-15T01:34:54.737Z,25.44
2022-09-15T01:41:59.386Z,25.48
2022-09-15T01:48:47.728Z,25.46
2022-09-15T01:55:44.547Z,25.49
2022-09-15T02:02:28.947Z,25.46
2022-09-15T02:09:39.718Z,25.44
2022-09-15T02:16:55.888Z,25.44
2022-09-15T02:24:14.282Z,25.53
2022-09-15T02:31:10.884Z,25.46
2022-09-15T02:37:56.851Z,25.44
2022-09-15T02:44:59.268Z,25.46
2022-09-15T02:51:34.318Z,25.41
2022-09-15T02:58:18.302Z,25.38
2022-09-15T03:04:53.830Z,25.41
2022-09-15T03:11:33.933Z,25.4
2022-09-15T03:18:14.154Z,25.44
2022-09-15T03:24:44.595Z,25.43
2022-09-15T03:31:10.779Z,25.4
2022-09-15T03:37:46.241Z,25.43
2022-09-15T03:44:10.309Z,25.37
2022-09-15T03:50:38.979Z,25.4
2022-09-15T03:57:11.507Z,25.43
2022-09-15T04:03:45.361Z,25.39
2022-09-15T04:10:21.878Z,25.42
2022-09-15T04:16:51.774Z,25.41
2022-09-15T04:23:23.817Z,25.4
2022-09-15T04:29:51.113Z,25.42
2022-09-15T04:36:19.928Z,25.46
2022-09-15T04:42:58.023Z,25.41
2022-09-15T04:49:27.906Z,25.42
2022-09-15T04:56:00.133Z,25.4
2022-09-15T05:02:42.828Z,25.4
2022-09-15T05:09:09.915Z,25.36
2022-09-15T05:15:45.257Z,25.36
2022-09-15T05:22:14.913Z,25.36
2022-09-15T05:28:39.948Z,25.37
2022-09-15T05:35:11.875Z,25.36
2022-09-15T05:41:50.937Z,25.37
2022-09-15T05:48:26.448Z,25.38
2022-09-15T05:54:55.776Z,25.4
2022-09-15T06:01:22.024Z,25.38
2022-09-15T06:07:53.815Z,25.38
2022-09-15T06:14:21.976Z,25.39
2022-09-15T06:20:56.782Z,25.44
2022-09-15T06:27:28.996Z,25.47
2022-09-15T06:33:59.960Z,25.46
2022-09-15T06:40:26.226Z,25.48
2022-09-15T06:46:55.878Z,25.55
2022-09-15T06:53:28.961Z,25.49
2022-09-15T06:59:56.925Z,25.5
2022-09-15T07:06:31.313Z,25.46
2022-09-15T07:12:54.450Z,25.42
2022-09-15T07:19:22.401Z,25.41
2022-09-15T07:25:58.530Z,25.43
2022-09-15T07:32:26.037Z,25.41
2022-09-15T07:38:57.996Z,25.4
2022-09-15T07:45:29.835Z,25.44
2022-09-15T07:52:18.453Z,25.37
2022-09-15T07:59:00.027Z,25.43
2022-09-15T08:05:37.389Z,25.46
2022-09-15T08:12:22.093Z,25.41
2022-09-15T08:18:48.123Z,25.54
2022-09-15T08:25:16.192Z,25.39
2022-09-15T08:31:46.356Z,25.49
2022-09-15T08:38:10.469Z,25.38
2022-09-15T08:44:59.560Z,25.41
2022-09-15T08:51:50.857Z,25.39
2022-09-15T08:58:39.112Z,25.39
2022-09-15T09:05:24.599Z,25.37
2022-09-15T09:12:35.022Z,25.36
2022-09-15T09:19:37.033Z,25.35
2022-09-15T09:26:39.959Z,25.41
2022-09-15T09:33:28.098Z,25.42
2022-09-15T09:40:30.521Z,25.44
2022-09-15T09:47:07.966Z,25.44
2022-09-15T09:54:01.096Z,25.46
2022-09-15T10:01:05.194Z,25.55
2022-09-15T10:08:03.071Z,25.49
2022-09-15T10:15:13.069Z,25.5
2022-09-15T10:22:03.289Z,25.49
2022-09-15T10:28:57.157Z,25.5
2022-09-15T10:35:52.469Z,25.48
2022-09-15T10:42:58.598Z,25.47
2022-09-15T10:50:06.145Z,25.48
2022-09-15T10:57:17.988Z,25.52
2022-09-15T11:04:27.949Z,25.5
2022-09-15T11:11:43.507Z,25.51
2022-09-15T11:18:38.305Z,25.52
2022-09-15T11:25:36.516Z,25.49
2022-09-15T11:32:51.825Z,25.53
2022-09-15T11:39:57.234Z,25.55
2022-09-15T11:46:57.087Z,25.58
2022-09-15T11:54:06.297Z,25.62
2022-09-15T12:01:01.989Z,25.64
2022-09-15T12:08:23.235Z,25.69
2022-09-15T12:15:17.528Z,25.75
2022-09-15T12:22:12.463Z,25.75
2022-09-15T12:29:16.873Z,25.75
2022-09-15T12:36:07.141Z,25.79
2022-09-15T12:43:08.237Z,25.82
2022-09-15T12:50:06.969Z,25.9
2022-09-15T12:57:03.066Z,25.84
2022-09-15T13:04:01.265Z,25.78
2022-09-15T13:10:58.600Z,25.71
2022-09-15T13:17:53.167Z,25.79
2022-09-15T13:24:43.699Z,25.72
2022-09-15T13:31:30.180Z,25.74
2022-09-15T13:38:39.230Z,25.74
2022-09-15T13:45:50.071Z,25.77
2022-09-15T13:52:59.567Z,25.75
2022-09-15T13:59:43.202Z,25.76
2022-09-15T14:06:24.536Z,25.75
2022-09-15T14:13:10.976Z,25.76
2022-09-15T14:19:50.589Z,25.83
2022-09-15T14:26:30.064Z,25.77
2022-09-15T14:33:04.479Z,25.81
2022-09-15T14:39:45.239Z,25.76
2022-09-15T14:46:47.749Z,25.81
2022-09-15T14:53:33.450Z,25.88
2022-09-15T15:00:35.103Z,26.01
2022-09-15T15:07:40.338Z,26
2022-09-15T15:14:26.488Z,25.98
2022-09-15T15:21:22.222Z,25.92
2022-09-15T15:28:19.216Z,25.92
2022-09-15T15:35:12.095Z,25.95
2022-09-15T15:42:02.265Z,25.98
2022-09-15T15:48:50.196Z,25.9
2022-09-15T15:55:22.319Z,25.9
2022-09-15T16:02:08.171Z,25.9
2022-09-15T16:08:43.168Z,25.93
2022-09-15T16:15:13.250Z,25.92
2022-09-15T16:21:41.336Z,25.93
2022-09-15T16:28:16.124Z,25.93
2022-09-15T16:34:54.204Z,25.91
2022-09-15T16:41:34.832Z,25.9
2022-09-15T16:48:10.698Z,25.87
2022-09-15T16:54:40.226Z,25.83
2022-09-15T17:01:14.599Z,25.8
2022-09-15T17:07:50.160Z,25.77
2022-09-15T17:14:14.793Z,25.72
2022-09-15T17:20:46.810Z,25.77
2022-09-15T17:27:24.705Z,25.77
2022-09-15T17:34:00.559Z,25.75
2022-09-15T17:40:29.724Z,25.76
2022-09-15T17:47:08.726Z,25.68
2022-09-15T17:53:35.297Z,25.63
2022-09-15T18:00:00.263Z,25.63
2022-09-15T18:06:34.856Z,25.65
2022-09-15T18:13:12.296Z,25.67
2022-09-15T18:19:51.708Z,25.71
2022-09-15T18:26:29.465Z,25.63
2022-09-15T18:32:50.310Z,25.57
2022-09-15T18:39:21.483Z,25.59
2022-09-15T18:45:59.512Z,25.56
2022-09-15T18:52:33.627Z,25.52
2022-09-15T18:58:58.229Z,25.5
2022-09-15T19:05:26.321Z,25.55
2022-09-15T19:12:00.246Z,25.47
2022-09-15T19:18:36.786Z,25.54
2022-09-15T19:25:03.490Z,25.5
2022-09-15T19:31:31.211Z,25.49
2022-09-15T19:38:01.333Z,25.51
2022-09-15T19:44:28.025Z,25.52
2022-09-15T19:50:59.385Z,25.52
2022-09-15T19:57:29.375Z,25.51
2022-09-15T20:03:56.462Z,25.49
2022-09-15T20:10:23.270Z,25.46
2022-09-15T20:16:57.366Z,25.57
2022-09-15T20:23:36.462Z,25.5
2022-09-15T20:30:04.386Z,25.47
2022-09-15T20:36:38.267Z,25.43
2022-09-15T20:43:04.259Z,25.44
2022-09-15T20:49:47.685Z,25.44
2022-09-15T20:56:14.469Z,25.4
2022-09-15T21:02:42.473Z,25.35
2022-09-15T21:09:25.385Z,25.43
2022-09-15T21:16:01.504Z,25.52
2022-09-15T21:22:46.181Z,25.62
2022-09-15T21:29:23.473Z,25.64
2022-09-15T21:35:52.787Z,25.74
2022-09-15T21:42:20.614Z,25.56
2022-09-15T21:48:58.920Z,25.54
2022-09-15T21:55:28.285Z,25.74
2022-09-15T22:02:00.401Z,25.47
2022-09-15T22:08:24.334Z,25.42
2022-09-15T22:14:56.421Z,25.53
2022-09-15T22:21:23.400Z,25.47
2022-09-15T22:27:52.419Z,25.46
2022-09-15T22:34:29.350Z,25.44
2022-09-15T22:41:06.343Z,25.5
2022-09-15T22:47:43.423Z,25.6
2022-09-15T22:54:18.006Z,25.63
2022-09-15T23:00:51.430Z,25.55
2022-09-15T23:07:14.482Z,25.37
2022-09-15T23:13:44.441Z,25.49
2022-09-15T23:20:14.364Z,25.37
2022-09-15T23:26:54.493Z,25.29
2022-09-15T23:33:16.920Z,25.31
2022-09-15T23:39:51.727Z,25.27
2022-09-15T23:46:30.358Z,25.28
2022-09-15T23:52:52.468Z,25.32
2022-09-15T23:59:20.022Z,25.33
